sensor_id;sensor_type;location;lat;lon;timestamp;P1;durP1;ratioP1;P2;durP2;ratioP2
7334;SDS011;3708;42.632;23.378;2023-04-12T00:01:41;15.57;;;8.37;;
7334;SDS011;3708;42.632;23.378;2023-04-12T00:04:08;9.87;;;7.90;;
7334;SDS011;3708;42.632;23.378;2023-04-12T00:06:38;9.00;;;7.90;;
7334;SDS011;3708;42.632;23.378;2023-04-12T00:09:05;13.50;;;8.30;;
7334;SDS011;3708;42.632;23.378;2023-04-12T00:11:32;11.13;;;8.60;;
7334;SDS011;3708;42.632;23.378;2023-04-12T00:14:00;10.13;;;8.07;;
7334;SDS011;3708;42.632;23.378;2023-04-12T00:16:28;16.07;;;9.37;;
7334;SDS011;3708;42.632;23.378;2023-04-12T00:18:55;9.83;;;7.67;;
7334;SDS011;3708;42.632;23.378;2023-04-12T00:21:22;11.80;;;8.43;;
7334;SDS011;3708;42.632;23.378;2023-04-12T00:23:52;10.73;;;9.30;;
7334;SDS011;3708;42.632;23.378;2023-04-12T00:26:19;11.93;;;9.10;;
7334;SDS011;3708;42.632;23.378;2023-04-12T00:28:46;10.40;;;8.33;;
7334;SDS011;3708;42.632;23.378;2023-04-12T00:31:13;11.07;;;8.43;;
7334;SDS011;3708;42.632;23.378;2023-04-12T00:33:41;14.00;;;9.57;;
7334;SDS011;3708;42.632;23.378;2023-04-12T00:36:08;14.80;;;9.40;;
7334;SDS011;3708;42.632;23.378;2023-04-12T00:38:35;13.67;;;9.70;;
7334;SDS011;3708;42.632;23.378;2023-04-12T00:41:02;13.27;;;9.13;;
7334;SDS011;3708;42.632;23.378;2023-04-12T00:43:29;11.07;;;8.00;;
7334;SDS011;3708;42.632;23.378;2023-04-12T00:45:56;12.47;;;8.97;;
7334;SDS011;3708;42.632;23.378;2023-04-12T00:48:23;11.10;;;8.07;;
7334;SDS011;3708;42.632;23.378;2023-04-12T00:50:53;12.33;;;9.13;;
7334;SDS011;3708;42.632;23.378;2023-04-12T00:53:21;11.27;;;9.10;;
7334;SDS011;3708;42.632;23.378;2023-04-12T00:55:49;14.03;;;10.03;;
7334;SDS011;3708;42.632;23.378;2023-04-12T00:58:16;11.67;;;9.30;;
7334;SDS011;3708;42.632;23.378;2023-04-12T01:00:43;12.57;;;9.60;;
7334;SDS011;3708;42.632;23.378;2023-04-12T01:03:14;14.03;;;8.90;;
7334;SDS011;3708;42.632;23.378;2023-04-12T01:05:48;11.97;;;8.77;;
7334;SDS011;3708;42.632;23.378;2023-04-12T01:08:22;11.33;;;8.40;;
7334;SDS011;3708;42.632;23.378;2023-04-12T01:11:11;12.43;;;9.27;;
7334;SDS011;3708;42.632;23.378;2023-04-12T01:13:44;14.10;;;10.40;;
7334;SDS011;3708;42.632;23.378;2023-04-12T01:16:18;12.13;;;9.63;;
7334;SDS011;3708;42.632;23.378;2023-04-12T01:18:52;12.00;;;8.83;;
7334;SDS011;3708;42.632;23.378;2023-04-12T01:21:25;12.77;;;8.90;;
7334;SDS011;3708;42.632;23.378;2023-04-12T01:24:13;12.77;;;9.40;;
7334;SDS011;3708;42.632;23.378;2023-04-12T01:26:53;14.43;;;10.13;;
7334;SDS011;3708;42.632;23.378;2023-04-12T01:29:26;13.63;;;10.13;;
7334;SDS011;3708;42.632;23.378;2023-04-12T01:31:57;13.87;;;8.57;;
7334;SDS011;3708;42.632;23.378;2023-04-12T01:34:25;12.83;;;9.43;;
7334;SDS011;3708;42.632;23.378;2023-04-12T01:36:54;12.93;;;9.90;;
7334;SDS011;3708;42.632;23.378;2023-04-12T01:39:23;13.10;;;9.40;;
7334;SDS011;3708;42.632;23.378;2023-04-12T01:41:51;12.47;;;9.00;;
7334;SDS011;3708;42.632;23.378;2023-04-12T01:44:18;13.27;;;9.73;;
7334;SDS011;3708;42.632;23.378;2023-04-12T01:46:46;17.07;;;10.33;;
7334;SDS011;3708;42.632;23.378;2023-04-12T01:49:14;17.10;;;10.37;;
7334;SDS011;3708;42.632;23.378;2023-04-12T01:51:46;15.00;;;10.00;;
7334;SDS011;3708;42.632;23.378;2023-04-12T01:54:17;11.87;;;9.30;;
7334;SDS011;3708;42.632;23.378;2023-04-12T01:56:49;14.93;;;9.37;;
7334;SDS011;3708;42.632;23.378;2023-04-12T01:59:21;14.80;;;10.57;;
7334;SDS011;3708;42.632;23.378;2023-04-12T02:01:53;11.97;;;9.80;;
7334;SDS011;3708;42.632;23.378;2023-04-12T02:04:20;14.27;;;10.13;;
7334;SDS011;3708;42.632;23.378;2023-04-12T02:06:49;14.67;;;9.90;;
7334;SDS011;3708;42.632;23.378;2023-04-12T02:09:16;13.90;;;10.47;;
7334;SDS011;3708;42.632;23.378;2023-04-12T02:11:45;12.60;;;9.60;;
7334;SDS011;3708;42.632;23.378;2023-04-12T02:14:12;13.90;;;10.07;;
7334;SDS011;3708;42.632;23.378;2023-04-12T02:16:39;12.93;;;9.57;;
7334;SDS011;3708;42.632;23.378;2023-04-12T02:19:10;14.73;;;10.37;;
7334;SDS011;3708;42.632;23.378;2023-04-12T02:21:39;14.63;;;10.47;;
7334;SDS011;3708;42.632;23.378;2023-04-12T02:24:07;14.07;;;10.27;;
7334;SDS011;3708;42.632;23.378;2023-04-12T02:26:34;17.03;;;10.13;;
7334;SDS011;3708;42.632;23.378;2023-04-12T02:29:02;15.60;;;10.47;;
7334;SDS011;3708;42.632;23.378;2023-04-12T02:31:31;17.57;;;11.47;;
7334;SDS011;3708;42.632;23.378;2023-04-12T02:33:58;17.57;;;11.23;;
7334;SDS011;3708;42.632;23.378;2023-04-12T02:36:26;15.17;;;10.73;;
7334;SDS011;3708;42.632;23.378;2023-04-12T02:38:53;16.77;;;11.30;;
7334;SDS011;3708;42.632;23.378;2023-04-12T02:41:22;14.83;;;10.87;;
7334;SDS011;3708;42.632;23.378;2023-04-12T02:43:50;14.77;;;10.90;;
7334;SDS011;3708;42.632;23.378;2023-04-12T02:46:18;16.90;;;11.33;;
7334;SDS011;3708;42.632;23.378;2023-04-12T02:48:45;13.60;;;9.97;;
7334;SDS011;3708;42.632;23.378;2023-04-12T02:51:12;14.60;;;10.93;;
7334;SDS011;3708;42.632;23.378;2023-04-12T02:53:41;14.03;;;10.30;;
7334;SDS011;3708;42.632;23.378;2023-04-12T02:56:08;16.03;;;10.53;;
7334;SDS011;3708;42.632;23.378;2023-04-12T02:58:35;13.37;;;9.83;;
7334;SDS011;3708;42.632;23.378;2023-04-12T03:01:02;14.77;;;9.73;;
7334;SDS011;3708;42.632;23.378;2023-04-12T03:03:32;14.90;;;9.93;;
7334;SDS011;3708;42.632;23.378;2023-04-12T03:05:59;13.27;;;9.90;;
7334;SDS011;3708;42.632;23.378;2023-04-12T03:08:26;13.23;;;10.70;;
7334;SDS011;3708;42.632;23.378;2023-04-12T03:10:54;13.20;;;10.67;;
7334;SDS011;3708;42.632;23.378;2023-04-12T03:13:21;14.43;;;10.80;;
7334;SDS011;3708;42.632;23.378;2023-04-12T03:15:53;16.23;;;10.53;;
7334;SDS011;3708;42.632;23.378;2023-04-12T03:18:23;16.63;;;11.90;;
7334;SDS011;3708;42.632;23.378;2023-04-12T03:20:50;15.07;;;11.53;;
7334;SDS011;3708;42.632;23.378;2023-04-12T03:23:17;14.73;;;10.87;;
7334;SDS011;3708;42.632;23.378;2023-04-12T03:25:44;17.23;;;12.23;;
7334;SDS011;3708;42.632;23.378;2023-04-12T03:28:12;17.20;;;12.63;;
7334;SDS011;3708;42.632;23.378;2023-04-12T03:30:39;16.13;;;11.10;;
7334;SDS011;3708;42.632;23.378;2023-04-12T03:33:06;16.60;;;12.77;;
7334;SDS011;3708;42.632;23.378;2023-04-12T03:35:33;17.00;;;12.73;;
7334;SDS011;3708;42.632;23.378;2023-04-12T03:38:00;18.57;;;13.07;;
7334;SDS011;3708;42.632;23.378;2023-04-12T03:40:27;18.63;;;13.93;;
7334;SDS011;3708;42.632;23.378;2023-04-12T03:42:53;19.47;;;13.67;;
7334;SDS011;3708;42.632;23.378;2023-04-12T03:45:22;20.77;;;14.23;;
7334;SDS011;3708;42.632;23.378;2023-04-12T03:47:49;19.00;;;13.23;;
7334;SDS011;3708;42.632;23.378;2023-04-12T03:50:16;19.27;;;14.00;;
7334;SDS011;3708;42.632;23.378;2023-04-12T03:52:43;22.93;;;14.63;;
7334;SDS011;3708;42.632;23.378;2023-04-12T03:55:10;18.30;;;13.63;;
7334;SDS011;3708;42.632;23.378;2023-04-12T03:57:37;16.20;;;13.67;;
7334;SDS011;3708;42.632;23.378;2023-04-12T04:00:05;20.60;;;13.63;;
7334;SDS011;3708;42.632;23.378;2023-04-12T04:02:35;18.60;;;13.80;;
7334;SDS011;3708;42.632;23.378;2023-04-12T04:05:02;19.57;;;12.30;;
7334;SDS011;3708;42.632;23.378;2023-04-12T04:07:30;21.97;;;13.43;;
7334;SDS011;3708;42.632;23.378;2023-04-12T04:12:42;18.80;;;13.87;;
7334;SDS011;3708;42.632;23.378;2023-04-12T04:15:09;20.87;;;14.67;;
7334;SDS011;3708;42.632;23.378;2023-04-12T04:17:38;17.37;;;12.47;;
7334;SDS011;3708;42.632;23.378;2023-04-12T04:20:08;20.00;;;13.37;;
7334;SDS011;3708;42.632;23.378;2023-04-12T04:22:36;16.57;;;13.23;;
7334;SDS011;3708;42.632;23.378;2023-04-12T04:25:03;17.70;;;13.03;;
7334;SDS011;3708;42.632;23.378;2023-04-12T04:27:32;16.60;;;12.27;;
7334;SDS011;3708;42.632;23.378;2023-04-12T04:30:02;19.30;;;13.77;;
7334;SDS011;3708;42.632;23.378;2023-04-12T04:32:31;19.70;;;13.83;;
7334;SDS011;3708;42.632;23.378;2023-04-12T04:34:59;18.00;;;13.67;;
7334;SDS011;3708;42.632;23.378;2023-04-12T04:37:26;14.73;;;12.23;;
7334;SDS011;3708;42.632;23.378;2023-04-12T04:39:54;19.10;;;12.33;;
7334;SDS011;3708;42.632;23.378;2023-04-12T04:42:21;17.03;;;11.33;;
7334;SDS011;3708;42.632;23.378;2023-04-12T04:44:49;15.93;;;12.37;;
7334;SDS011;3708;42.632;23.378;2023-04-12T04:47:16;18.87;;;12.53;;
7334;SDS011;3708;42.632;23.378;2023-04-12T04:49:46;17.53;;;12.07;;
7334;SDS011;3708;42.632;23.378;2023-04-12T04:52:17;16.53;;;11.87;;
7334;SDS011;3708;42.632;23.378;2023-04-12T04:54:45;17.00;;;11.87;;
7334;SDS011;3708;42.632;23.378;2023-04-12T04:57:14;16.23;;;11.57;;
7334;SDS011;3708;42.632;23.378;2023-04-12T04:59:41;17.43;;;12.20;;
7334;SDS011;3708;42.632;23.378;2023-04-12T05:02:08;14.03;;;10.67;;
7334;SDS011;3708;42.632;23.378;2023-04-12T05:04:35;12.50;;;9.50;;
7334;SDS011;3708;42.632;23.378;2023-04-12T05:07:02;13.53;;;10.57;;
7334;SDS011;3708;42.632;23.378;2023-04-12T05:09:31;12.53;;;10.17;;
7334;SDS011;3708;42.632;23.378;2023-04-12T05:11:57;13.23;;;10.30;;
7334;SDS011;3708;42.632;23.378;2023-04-12T05:14:24;13.57;;;9.67;;
7334;SDS011;3708;42.632;23.378;2023-04-12T05:16:51;18.33;;;9.27;;
7334;SDS011;3708;42.632;23.378;2023-04-12T05:19:18;15.40;;;10.20;;
7334;SDS011;3708;42.632;23.378;2023-04-12T05:21:46;14.70;;;10.03;;
7334;SDS011;3708;42.632;23.378;2023-04-12T05:24:13;10.67;;;8.27;;
7334;SDS011;3708;42.632;23.378;2023-04-12T05:26:41;12.90;;;8.70;;
7334;SDS011;3708;42.632;23.378;2023-04-12T05:29:08;11.00;;;8.33;;
7334;SDS011;3708;42.632;23.378;2023-04-12T05:31:34;11.10;;;8.50;;
7334;SDS011;3708;42.632;23.378;2023-04-12T05:34:01;11.30;;;7.93;;
7334;SDS011;3708;42.632;23.378;2023-04-12T05:36:28;8.07;;;6.40;;
7334;SDS011;3708;42.632;23.378;2023-04-12T05:38:56;8.63;;;5.80;;
7334;SDS011;3708;42.632;23.378;2023-04-12T05:41:23;8.50;;;6.67;;
7334;SDS011;3708;42.632;23.378;2023-04-12T05:43:51;10.00;;;7.17;;
7334;SDS011;3708;42.632;23.378;2023-04-12T05:46:18;8.30;;;5.70;;
7334;SDS011;3708;42.632;23.378;2023-04-12T05:48:45;10.47;;;6.87;;
7334;SDS011;3708;42.632;23.378;2023-04-12T05:51:11;7.07;;;5.97;;
7334;SDS011;3708;42.632;23.378;2023-04-12T05:53:38;11.60;;;6.17;;
7334;SDS011;3708;42.632;23.378;2023-04-12T05:56:05;7.90;;;5.70;;
7334;SDS011;3708;42.632;23.378;2023-04-12T05:58:33;7.20;;;5.07;;
7334;SDS011;3708;42.632;23.378;2023-04-12T06:01:01;6.80;;;5.03;;
7334;SDS011;3708;42.632;23.378;2023-04-12T06:03:28;9.33;;;5.30;;
7334;SDS011;3708;42.632;23.378;2023-04-12T06:05:56;7.10;;;4.67;;
7334;SDS011;3708;42.632;23.378;2023-04-12T06:08:26;9.63;;;4.83;;
7334;SDS011;3708;42.632;23.378;2023-04-12T06:10:55;6.73;;;4.07;;
7334;SDS011;3708;42.632;23.378;2023-04-12T06:13:22;5.80;;;4.10;;
7334;SDS011;3708;42.632;23.378;2023-04-12T06:15:49;5.97;;;4.30;;
7334;SDS011;3708;42.632;23.378;2023-04-12T06:18:17;7.27;;;4.60;;
7334;SDS011;3708;42.632;23.378;2023-04-12T06:20:44;17.20;;;4.17;;
7334;SDS011;3708;42.632;23.378;2023-04-12T06:23:11;6.63;;;4.57;;
7334;SDS011;3708;42.632;23.378;2023-04-12T06:25:38;9.47;;;5.07;;
7334;SDS011;3708;42.632;23.378;2023-04-12T06:28:04;6.23;;;4.60;;
7334;SDS011;3708;42.632;23.378;2023-04-12T06:30:31;5.97;;;5.00;;
7334;SDS011;3708;42.632;23.378;2023-04-12T06:32:58;7.13;;;4.90;;
7334;SDS011;3708;42.632;23.378;2023-04-12T06:35:26;7.13;;;4.87;;
7334;SDS011;3708;42.632;23.378;2023-04-12T06:37:53;8.50;;;5.70;;
7334;SDS011;3708;42.632;23.378;2023-04-12T06:40:20;9.43;;;5.77;;
7334;SDS011;3708;42.632;23.378;2023-04-12T06:42:47;6.40;;;4.90;;
7334;SDS011;3708;42.632;23.378;2023-04-12T06:45:14;7.67;;;5.30;;
7334;SDS011;3708;42.632;23.378;2023-04-12T06:47:41;6.37;;;5.03;;
7334;SDS011;3708;42.632;23.378;2023-04-12T06:50:08;8.37;;;5.63;;
7334;SDS011;3708;42.632;23.378;2023-04-12T06:52:37;7.80;;;4.67;;
7334;SDS011;3708;42.632;23.378;2023-04-12T06:55:04;4.87;;;4.23;;
7334;SDS011;3708;42.632;23.378;2023-04-12T06:57:31;5.53;;;4.33;;
7334;SDS011;3708;42.632;23.378;2023-04-12T06:59:58;4.90;;;3.97;;
7334;SDS011;3708;42.632;23.378;2023-04-12T07:02:25;6.57;;;4.67;;
7334;SDS011;3708;42.632;23.378;2023-04-12T07:04:52;7.30;;;4.77;;
7334;SDS011;3708;42.632;23.378;2023-04-12T07:07:19;5.97;;;4.13;;
7334;SDS011;3708;42.632;23.378;2023-04-12T07:09:48;6.27;;;4.50;;
7334;SDS011;3708;42.632;23.378;2023-04-12T07:12:16;5.67;;;3.87;;
7334;SDS011;3708;42.632;23.378;2023-04-12T07:14:43;6.13;;;3.93;;
7334;SDS011;3708;42.632;23.378;2023-04-12T07:17:10;5.07;;;3.50;;
7334;SDS011;3708;42.632;23.378;2023-04-12T07:19:36;4.13;;;3.70;;
7334;SDS011;3708;42.632;23.378;2023-04-12T07:22:03;3.97;;;3.00;;
7334;SDS011;3708;42.632;23.378;2023-04-12T07:24:30;4.10;;;3.70;;
7334;SDS011;3708;42.632;23.378;2023-04-12T07:26:58;6.60;;;4.53;;
7334;SDS011;3708;42.632;23.378;2023-04-12T07:29:25;6.67;;;4.00;;
7334;SDS011;3708;42.632;23.378;2023-04-12T07:31:52;4.43;;;3.93;;
7334;SDS011;3708;42.632;23.378;2023-04-12T07:34:19;4.13;;;3.70;;
7334;SDS011;3708;42.632;23.378;2023-04-12T07:36:46;4.10;;;3.70;;
7334;SDS011;3708;42.632;23.378;2023-04-12T07:39:13;5.63;;;3.83;;
7334;SDS011;3708;42.632;23.378;2023-04-12T07:41:41;5.60;;;4.60;;
7334;SDS011;3708;42.632;23.378;2023-04-12T07:44:11;4.80;;;4.30;;
7334;SDS011;3708;42.632;23.378;2023-04-12T07:46:38;3.83;;;3.20;;
7334;SDS011;3708;42.632;23.378;2023-04-12T07:49:06;5.43;;;4.10;;
7334;SDS011;3708;42.632;23.378;2023-04-12T07:51:34;5.73;;;4.30;;
7334;SDS011;3708;42.632;23.378;2023-04-12T07:54:01;4.57;;;4.17;;
7334;SDS011;3708;42.632;23.378;2023-04-12T07:56:28;4.20;;;3.80;;
7334;SDS011;3708;42.632;23.378;2023-04-12T07:58:55;4.63;;;3.37;;
7334;SDS011;3708;42.632;23.378;2023-04-12T08:01:23;3.90;;;3.47;;
7334;SDS011;3708;42.632;23.378;2023-04-12T08:03:50;4.90;;;3.60;;
7334;SDS011;3708;42.632;23.378;2023-04-12T08:06:17;4.13;;;3.40;;
7334;SDS011;3708;42.632;23.378;2023-04-12T08:08:44;3.93;;;3.47;;
7334;SDS011;3708;42.632;23.378;2023-04-12T08:11:11;5.57;;;2.80;;
7334;SDS011;3708;42.632;23.378;2023-04-12T08:13:38;3.87;;;3.07;;
7334;SDS011;3708;42.632;23.378;2023-04-12T08:16:05;2.70;;;2.50;;
7334;SDS011;3708;42.632;23.378;2023-04-12T08:18:34;3.87;;;3.10;;
7334;SDS011;3708;42.632;23.378;2023-04-12T08:21:01;3.03;;;2.50;;
7334;SDS011;3708;42.632;23.378;2023-04-12T08:23:28;4.27;;;3.03;;
7334;SDS011;3708;42.632;23.378;2023-04-12T08:25:55;3.27;;;2.50;;
7334;SDS011;3708;42.632;23.378;2023-04-12T08:28:27;2.73;;;2.50;;
7334;SDS011;3708;42.632;23.378;2023-04-12T08:30:55;2.63;;;2.40;;
7334;SDS011;3708;42.632;23.378;2023-04-12T08:33:22;3.93;;;2.30;;
7334;SDS011;3708;42.632;23.378;2023-04-12T08:35:50;4.07;;;2.30;;
7334;SDS011;3708;42.632;23.378;2023-04-12T08:38:17;2.40;;;2.20;;
7334;SDS011;3708;42.632;23.378;2023-04-12T08:40:44;3.40;;;2.43;;
7334;SDS011;3708;42.632;23.378;2023-04-12T08:43:11;2.33;;;2.13;;
7334;SDS011;3708;42.632;23.378;2023-04-12T08:45:38;4.13;;;2.00;;
7334;SDS011;3708;42.632;23.378;2023-04-12T08:48:05;2.13;;;1.93;;
7334;SDS011;3708;42.632;23.378;2023-04-12T08:50:32;5.07;;;2.37;;
7334;SDS011;3708;42.632;23.378;2023-04-12T08:53:00;2.90;;;2.10;;
7334;SDS011;3708;42.632;23.378;2023-04-12T08:55:28;3.90;;;2.00;;
7334;SDS011;3708;42.632;23.378;2023-04-12T08:57:55;2.27;;;2.00;;
7334;SDS011;3708;42.632;23.378;2023-04-12T09:00:22;4.80;;;2.30;;
7334;SDS011;3708;42.632;23.378;2023-04-12T09:02:50;4.70;;;1.90;;
7334;SDS011;3708;42.632;23.378;2023-04-12T09:05:17;2.50;;;2.30;;
7334;SDS011;3708;42.632;23.378;2023-04-12T09:07:44;2.40;;;2.20;;
7334;SDS011;3708;42.632;23.378;2023-04-12T09:10:13;2.87;;;2.30;;
7334;SDS011;3708;42.632;23.378;2023-04-12T09:12:56;2.80;;;2.20;;
7334;SDS011;3708;42.632;23.378;2023-04-12T09:15:23;2.40;;;2.00;;
7334;SDS011;3708;42.632;23.378;2023-04-12T09:17:58;2.27;;;1.80;;
7334;SDS011;3708;42.632;23.378;2023-04-12T09:20:29;4.23;;;1.87;;
7334;SDS011;3708;42.632;23.378;2023-04-12T09:22:56;1.93;;;1.73;;
7334;SDS011;3708;42.632;23.378;2023-04-12T09:25:39;2.80;;;2.27;;
7334;SDS011;3708;42.632;23.378;2023-04-12T09:28:19;4.20;;;2.63;;
7334;SDS011;3708;42.632;23.378;2023-04-12T09:30:47;2.77;;;1.80;;
7334;SDS011;3708;42.632;23.378;2023-04-12T09:33:17;2.20;;;2.00;;
7334;SDS011;3708;42.632;23.378;2023-04-12T09:35:44;4.53;;;2.10;;
7334;SDS011;3708;42.632;23.378;2023-04-12T09:38:12;2.03;;;1.87;;
7334;SDS011;3708;42.632;23.378;2023-04-12T09:40:40;4.90;;;1.87;;
7334;SDS011;3708;42.632;23.378;2023-04-12T09:43:07;2.37;;;1.77;;
7334;SDS011;3708;42.632;23.378;2023-04-12T09:45:35;2.03;;;1.60;;
7334;SDS011;3708;42.632;23.378;2023-04-12T09:48:04;2.70;;;1.80;;
7334;SDS011;3708;42.632;23.378;2023-04-12T09:50:32;2.20;;;1.70;;
7334;SDS011;3708;42.632;23.378;2023-04-12T09:52:59;2.10;;;1.90;;
7334;SDS011;3708;42.632;23.378;2023-04-12T09:55:28;2.57;;;2.13;;
7334;SDS011;3708;42.632;23.378;2023-04-12T09:57:59;5.03;;;2.00;;
7334;SDS011;3708;42.632;23.378;2023-04-12T10:00:29;2.80;;;1.60;;
7334;SDS011;3708;42.632;23.378;2023-04-12T10:03:00;2.43;;;1.90;;
7334;SDS011;3708;42.632;23.378;2023-04-12T10:05:27;5.33;;;1.93;;
7334;SDS011;3708;42.632;23.378;2023-04-12T10:07:54;5.20;;;2.00;;
7334;SDS011;3708;42.632;23.378;2023-04-12T10:10:22;2.23;;;1.73;;
7334;SDS011;3708;42.632;23.378;2023-04-12T10:12:49;2.90;;;1.80;;
7334;SDS011;3708;42.632;23.378;2023-04-12T10:15:18;3.00;;;1.67;;
7334;SDS011;3708;42.632;23.378;2023-04-12T10:17:47;2.23;;;1.60;;
7334;SDS011;3708;42.632;23.378;2023-04-12T10:20:15;2.50;;;1.50;;
7334;SDS011;3708;42.632;23.378;2023-04-12T10:22:44;2.30;;;1.40;;
7334;SDS011;3708;42.632;23.378;2023-04-12T10:25:13;2.67;;;1.77;;
7334;SDS011;3708;42.632;23.378;2023-04-12T10:27:41;4.03;;;1.40;;
7334;SDS011;3708;42.632;23.378;2023-04-12T10:30:20;12.77;;;1.60;;
7334;SDS011;3708;42.632;23.378;2023-04-12T10:32:48;3.13;;;1.50;;
7334;SDS011;3708;42.632;23.378;2023-04-12T10:35:15;3.70;;;1.40;;
7334;SDS011;3708;42.632;23.378;2023-04-12T10:37:58;4.20;;;1.37;;
7334;SDS011;3708;42.632;23.378;2023-04-12T10:40:25;3.00;;;1.70;;
7334;SDS011;3708;42.632;23.378;2023-04-12T10:45:53;2.13;;;1.60;;
7334;SDS011;3708;42.632;23.378;2023-04-12T10:48:32;2.63;;;1.50;;
7334;SDS011;3708;42.632;23.378;2023-04-12T10:51:13;2.63;;;1.60;;
7334;SDS011;3708;42.632;23.378;2023-04-12T10:53:47;2.83;;;1.60;;
7334;SDS011;3708;42.632;23.378;2023-04-12T10:59:01;2.07;;;1.40;;
7334;SDS011;3708;42.632;23.378;2023-04-12T11:01:31;3.03;;;1.50;;
7334;SDS011;3708;42.632;23.378;2023-04-12T11:04:14;2.07;;;1.53;;
7334;SDS011;3708;42.632;23.378;2023-04-12T11:06:47;2.40;;;1.30;;
7334;SDS011;3708;42.632;23.378;2023-04-12T11:09:16;6.03;;;2.17;;
7334;SDS011;3708;42.632;23.378;2023-04-12T11:11:46;3.60;;;1.40;;
7334;SDS011;3708;42.632;23.378;2023-04-12T11:14:15;3.10;;;1.60;;
7334;SDS011;3708;42.632;23.378;2023-04-12T11:19:49;3.37;;;1.63;;
7334;SDS011;3708;42.632;23.378;2023-04-12T11:22:21;2.17;;;1.40;;
7334;SDS011;3708;42.632;23.378;2023-04-12T11:24:50;4.13;;;1.60;;
7334;SDS011;3708;42.632;23.378;2023-04-12T11:27:18;2.73;;;1.20;;
7334;SDS011;3708;42.632;23.378;2023-04-12T11:29:49;4.03;;;1.60;;
7334;SDS011;3708;42.632;23.378;2023-04-12T11:32:19;5.70;;;1.63;;
7334;SDS011;3708;42.632;23.378;2023-04-12T11:34:48;1.77;;;1.50;;
7334;SDS011;3708;42.632;23.378;2023-04-12T11:37:17;4.53;;;1.40;;
7334;SDS011;3708;42.632;23.378;2023-04-12T11:39:44;2.80;;;1.20;;
7334;SDS011;3708;42.632;23.378;2023-04-12T11:42:12;4.53;;;1.40;;
7334;SDS011;3708;42.632;23.378;2023-04-12T11:44:41;5.70;;;1.67;;
7334;SDS011;3708;42.632;23.378;2023-04-12T11:47:13;2.20;;;1.30;;
7334;SDS011;3708;42.632;23.378;2023-04-12T11:49:44;1.13;;;1.03;;
7334;SDS011;3708;42.632;23.378;2023-04-12T11:52:15;5.97;;;1.40;;
7334;SDS011;3708;42.632;23.378;2023-04-12T11:54:45;3.50;;;1.50;;
7334;SDS011;3708;42.632;23.378;2023-04-12T11:57:15;3.40;;;1.30;;
7334;SDS011;3708;42.632;23.378;2023-04-12T11:59:43;2.03;;;1.50;;
7334;SDS011;3708;42.632;23.378;2023-04-12T12:02:11;3.53;;;1.50;;
7334;SDS011;3708;42.632;23.378;2023-04-12T12:04:39;3.10;;;1.30;;
7334;SDS011;3708;42.632;23.378;2023-04-12T12:07:09;1.37;;;1.20;;
7334;SDS011;3708;42.632;23.378;2023-04-12T12:09:39;2.43;;;1.43;;
7334;SDS011;3708;42.632;23.378;2023-04-12T12:12:06;3.10;;;1.70;;
7334;SDS011;3708;42.632;23.378;2023-04-12T12:14:35;2.20;;;1.70;;
7334;SDS011;3708;42.632;23.378;2023-04-12T12:17:08;4.83;;;1.20;;
7334;SDS011;3708;42.632;23.378;2023-04-12T12:19:36;2.13;;;1.30;;
7334;SDS011;3708;42.632;23.378;2023-04-12T12:22:10;2.20;;;1.33;;
7334;SDS011;3708;42.632;23.378;2023-04-12T12:24:42;2.17;;;1.40;;
7334;SDS011;3708;42.632;23.378;2023-04-12T12:27:11;1.97;;;1.40;;
7334;SDS011;3708;42.632;23.378;2023-04-12T12:29:38;1.87;;;1.60;;
7334;SDS011;3708;42.632;23.378;2023-04-12T12:32:09;2.50;;;1.33;;
7334;SDS011;3708;42.632;23.378;2023-04-12T12:34:38;1.67;;;1.43;;
7334;SDS011;3708;42.632;23.378;2023-04-12T12:37:06;2.30;;;1.30;;
7334;SDS011;3708;42.632;23.378;2023-04-12T12:39:34;2.80;;;1.97;;
7334;SDS011;3708;42.632;23.378;2023-04-12T12:42:03;3.30;;;2.30;;
7334;SDS011;3708;42.632;23.378;2023-04-12T12:44:30;1.50;;;1.00;;
7334;SDS011;3708;42.632;23.378;2023-04-12T12:46:58;3.03;;;1.40;;
7334;SDS011;3708;42.632;23.378;2023-04-12T12:49:26;1.50;;;1.40;;
7334;SDS011;3708;42.632;23.378;2023-04-12T12:51:53;8.00;;;1.87;;
7334;SDS011;3708;42.632;23.378;2023-04-12T12:54:20;6.13;;;1.97;;
7334;SDS011;3708;42.632;23.378;2023-04-12T12:56:51;1.60;;;1.20;;
7334;SDS011;3708;42.632;23.378;2023-04-12T12:59:19;2.73;;;1.23;;
7334;SDS011;3708;42.632;23.378;2023-04-12T13:01:47;1.50;;;1.10;;
7334;SDS011;3708;42.632;23.378;2023-04-12T13:04:14;1.60;;;1.23;;
7334;SDS011;3708;42.632;23.378;2023-04-12T13:06:46;2.27;;;1.30;;
7334;SDS011;3708;42.632;23.378;2023-04-12T13:09:13;2.97;;;1.23;;
7334;SDS011;3708;42.632;23.378;2023-04-12T13:11:41;1.57;;;1.13;;
7334;SDS011;3708;42.632;23.378;2023-04-12T13:14:09;4.47;;;1.33;;
7334;SDS011;3708;42.632;23.378;2023-04-12T13:16:40;1.37;;;1.20;;
7334;SDS011;3708;42.632;23.378;2023-04-12T13:19:12;2.93;;;1.60;;
7334;SDS011;3708;42.632;23.378;2023-04-12T13:21:40;1.20;;;1.10;;
7334;SDS011;3708;42.632;23.378;2023-04-12T13:24:07;2.50;;;1.50;;
7334;SDS011;3708;42.632;23.378;2023-04-12T13:26:34;2.33;;;1.40;;
7334;SDS011;3708;42.632;23.378;2023-04-12T13:29:01;1.60;;;1.47;;
7334;SDS011;3708;42.632;23.378;2023-04-12T13:31:31;1.30;;;1.20;;
7334;SDS011;3708;42.632;23.378;2023-04-12T13:33:59;2.53;;;1.40;;
7334;SDS011;3708;42.632;23.378;2023-04-12T13:36:26;2.27;;;1.17;;
7334;SDS011;3708;42.632;23.378;2023-04-12T13:38:53;5.10;;;1.37;;
7334;SDS011;3708;42.632;23.378;2023-04-12T13:41:19;1.30;;;1.20;;
7334;SDS011;3708;42.632;23.378;2023-04-12T13:43:46;1.37;;;1.13;;
7334;SDS011;3708;42.632;23.378;2023-04-12T13:46:13;1.60;;;1.20;;
7334;SDS011;3708;42.632;23.378;2023-04-12T13:48:40;2.10;;;1.53;;
7334;SDS011;3708;42.632;23.378;2023-04-12T13:51:09;2.03;;;1.43;;
7334;SDS011;3708;42.632;23.378;2023-04-12T13:53:35;1.60;;;1.43;;
7334;SDS011;3708;42.632;23.378;2023-04-12T13:56:02;1.87;;;1.30;;
7334;SDS011;3708;42.632;23.378;2023-04-12T13:58:29;2.67;;;1.30;;
7334;SDS011;3708;42.632;23.378;2023-04-12T14:00:56;1.93;;;1.40;;
7334;SDS011;3708;42.632;23.378;2023-04-12T14:03:24;3.07;;;1.50;;
7334;SDS011;3708;42.632;23.378;2023-04-12T14:05:51;2.03;;;1.40;;
7334;SDS011;3708;42.632;23.378;2023-04-12T14:08:19;1.20;;;1.10;;
7334;SDS011;3708;42.632;23.378;2023-04-12T14:10:46;1.20;;;1.10;;
7334;SDS011;3708;42.632;23.378;2023-04-12T14:13:13;2.33;;;1.50;;
7334;SDS011;3708;42.632;23.378;2023-04-12T14:15:40;1.57;;;1.47;;
7334;SDS011;3708;42.632;23.378;2023-04-12T14:18:07;1.93;;;1.63;;
7334;SDS011;3708;42.632;23.378;2023-04-12T14:20:33;1.57;;;1.37;;
7334;SDS011;3708;42.632;23.378;2023-04-12T14:23:00;2.47;;;1.53;;
7334;SDS011;3708;42.632;23.378;2023-04-12T14:25:29;3.97;;;1.37;;
7334;SDS011;3708;42.632;23.378;2023-04-12T14:27:56;1.70;;;1.20;;
7334;SDS011;3708;42.632;23.378;2023-04-12T14:30:23;1.73;;;1.27;;
7334;SDS011;3708;42.632;23.378;2023-04-12T14:32:51;1.40;;;1.30;;
7334;SDS011;3708;42.632;23.378;2023-04-12T14:35:18;2.40;;;1.60;;
7334;SDS011;3708;42.632;23.378;2023-04-12T14:37:44;1.43;;;1.20;;
7334;SDS011;3708;42.632;23.378;2023-04-12T14:40:12;3.13;;;1.50;;
7334;SDS011;3708;42.632;23.378;2023-04-12T14:42:40;1.40;;;1.30;;
7334;SDS011;3708;42.632;23.378;2023-04-12T14:45:07;2.67;;;1.60;;
7334;SDS011;3708;42.632;23.378;2023-04-12T14:47:36;1.47;;;1.30;;
7334;SDS011;3708;42.632;23.378;2023-04-12T14:50:03;2.37;;;1.47;;
7334;SDS011;3708;42.632;23.378;2023-04-12T14:52:30;1.80;;;1.33;;
7334;SDS011;3708;42.632;23.378;2023-04-12T14:54:57;4.40;;;1.40;;
7334;SDS011;3708;42.632;23.378;2023-04-12T14:57:25;4.27;;;1.40;;
7334;SDS011;3708;42.632;23.378;2023-04-12T14:59:53;1.20;;;1.10;;
7334;SDS011;3708;42.632;23.378;2023-04-12T15:02:20;6.17;;;1.80;;
7334;SDS011;3708;42.632;23.378;2023-04-12T15:04:47;2.00;;;1.37;;
7334;SDS011;3708;42.632;23.378;2023-04-12T15:07:14;4.17;;;1.30;;
7334;SDS011;3708;42.632;23.378;2023-04-12T15:09:41;2.03;;;1.37;;
7334;SDS011;3708;42.632;23.378;2023-04-12T15:12:11;2.30;;;1.50;;